Time;durP1;ratioP1;P1;durP2;ratioP2;P2;SDS_P1;SDS_P2;PMS_P1;PMS_P2;Temp;Humidity;BMP_temperature;BMP_pressure;BME280_temperature;BME280_humidity;BME280_pressure;Samples;Min_cycle;Max_cycle;Signal;HPM_P1;HPM_P2
2022/04/12 00:01:16;;;;;;;8.85;5.85;;;;;;;12.17;42.19;100948.69;5080412;28;20518;-69
2022/04/12 00:03:42;;;;;;;8.95;5.80;;;;;;;12.16;42.33;100944.31;5085494;28;20115;-69
2022/04/12 00:06:10;;;;;;;8.23;6.22;;;;;;;12.14;42.24;100946.22;5070309;28;20092;-69
2022/04/12 00:08:38;;;;;;;8.20;5.97;;;;;;;12.13;42.36;100946.34;5072085;28;20044;-69
2022/04/12 00:11:03;;;;;;;6.90;5.80;;;;;;;12.08;42.24;100945.81;5072148;28;20224;-69
2022/04/12 00:13:29;;;;;;;8.25;6.35;;;;;;;12.04;42.38;100942.50;5079753;28;20026;-69
2022/04/12 00:15:54;;;;;;;9.65;6.03;;;;;;;12.01;42.89;100940.03;5084984;28;20043;-69
2022/04/12 00:21:06;;;;;;;8.82;5.90;;;;;;;11.97;43.15;100942.06;5071246;28;20075;-69
2022/04/12 00:23:32;;;;;;;7.45;5.75;;;;;;;11.92;43.23;100940.66;5080082;28;20028;-69
2022/04/12 00:25:57;;;;;;;7.88;5.47;;;;;;;11.88;42.83;100934.66;5083267;28;20097;-69
2022/04/12 00:28:23;;;;;;;7.03;6.03;;;;;;;11.86;43.17;100936.59;5054169;28;20127;-68
2022/04/12 00:30:51;;;;;;;9.88;6.20;;;;;;;11.85;43.45;100934.88;5082560;28;20077;-69
2022/04/12 00:33:17;;;;;;;8.32;5.63;;;;;;;11.81;43.36;100933.34;5087255;28;20111;-69
2022/04/12 00:35:42;;;;;;;6.68;5.38;;;;;;;11.78;43.15;100936.22;5073640;28;20519;-68
2022/04/12 00:38:17;;;;;;;10.15;5.53;;;;;;;11.78;43.48;100941.53;5058529;28;20036;-69
2022/04/12 00:40:44;;;;;;;7.63;5.65;;;;;;;11.71;43.66;100934.94;5054489;28;20511;-69
2022/04/12 00:43:09;;;;;;;8.52;5.57;;;;;;;11.69;43.85;100934.16;5070258;28;20052;-69
2022/04/12 00:45:35;;;;;;;7.50;5.72;;;;;;;11.72;43.68;100939.28;5070936;28;20059;-69
2022/04/12 00:48:03;;;;;;;10.95;5.60;;;;;;;11.68;43.59;100935.13;5074755;28;20064;-69
2022/04/12 00:50:28;;;;;;;9.82;6.05;;;;;;;11.67;43.60;100936.06;5070153;28;20099;-69
2022/04/12 00:52:56;;;;;;;7.88;5.28;;;;;;;11.65;43.73;100933.53;5073176;28;20021;-69
2022/04/12 00:55:22;;;;;;;7.35;5.43;;;;;;;11.66;43.69;100931.72;5073963;28;20597;-68
2022/04/12 00:57:48;;;;;;;5.47;4.97;;;;;;;11.67;43.81;100928.06;5079445;28;20024;-68
2022/04/12 01:00:16;;;;;;;6.70;5.35;;;;;;;11.48;44.65;100926.63;5074740;28;20467;-68
2022/04/12 01:02:44;;;;;;;9.63;5.45;;;;;;;11.52;43.94;100941.44;5085858;28;20045;-69
2022/04/12 01:05:09;;;;;;;5.80;5.10;;;;;;;11.58;44.55;100938.38;5081624;28;20063;-68
2022/04/12 01:07:38;;;;;;;7.18;5.75;;;;;;;11.51;43.88;100942.41;5079616;28;20410;-69
2022/04/12 01:10:04;;;;;;;7.10;5.18;;;;;;;11.54;44.17;100928.91;5082683;28;20024;-69
2022/04/12 01:12:38;;;;;;;5.90;5.28;;;;;;;11.49;44.26;100919.50;5073868;28;20012;-68
2022/04/12 01:15:18;;;;;;;7.00;5.13;;;;;;;11.50;44.28;100914.09;5089923;28;20434;-68
2022/04/12 01:17:45;;;;;;;6.93;5.38;;;;;;;11.45;44.29;100913.53;5083763;28;20020;-69
2022/04/12 01:20:15;;;;;;;10.02;5.10;;;;;;;11.49;44.21;100922.16;5075347;28;20080;-69
2022/04/12 01:22:48;;;;;;;7.07;5.68;;;;;;;11.42;44.27;100931.53;5070210;28;20299;-69
2022/04/12 01:25:17;;;;;;;7.72;5.32;;;;;;;11.37;44.63;100918.50;5070074;28;20039;-69
2022/04/12 01:27:43;;;;;;;8.15;4.95;;;;;;;11.39;44.52;100927.25;5077035;28;20027;-69
2022/04/12 01:30:12;;;;;;;7.93;5.22;;;;;;;11.41;44.79;100922.66;5059360;28;20036;-69
2022/04/12 01:32:38;;;;;;;7.80;5.43;;;;;;;11.40;44.90;100922.75;5077043;28;20028;-69
2022/04/12 01:35:05;;;;;;;8.57;5.00;;;;;;;11.33;45.26;100920.50;5070542;28;20055;-69
2022/04/12 01:37:30;;;;;;;6.97;5.05;;;;;;;11.30;45.44;100919.84;5069989;28;20039;-69
2022/04/12 01:39:56;;;;;;;6.10;5.20;;;;;;;11.27;45.09;100901.41;5073421;28;20032;-69
2022/04/12 01:42:22;;;;;;;7.05;5.40;;;;;;;11.27;45.53;100917.41;5069565;28;20029;-69
2022/04/12 01:44:48;;;;;;;6.22;5.40;;;;;;;11.26;45.39;100916.50;5070426;28;20146;-69
2022/04/12 01:47:13;;;;;;;9.15;5.43;;;;;;;11.17;45.64;100921.59;5069001;28;20081;-69
2022/04/12 01:49:40;;;;;;;7.45;5.25;;;;;;;11.20;45.20;100921.38;5077804;28;20092;-69
2022/04/12 01:52:06;;;;;;;10.63;5.90;;;;;;;11.19;45.94;100911.69;5074407;28;20024;-69
2022/04/12 01:54:34;;;;;;;7.78;5.20;;;;;;;11.19;45.72;100907.22;5089849;28;20526;-69
2022/04/12 01:57:03;;;;;;;11.10;5.63;;;;;;;11.20;45.73;100900.94;5067799;28;20495;-69
2022/04/12 01:59:29;;;;;;;9.00;5.77;;;;;;;11.19;45.81;100899.25;5069827;28;20036;-69
2022/04/12 02:01:54;;;;;;;7.72;5.28;;;;;;;11.11;45.87;100893.56;5068670;28;20044;-69
2022/04/12 02:04:19;;;;;;;9.68;5.30;;;;;;;11.11;46.04;100890.91;5070052;28;20063;-69
2022/04/12 02:06:45;;;;;;;10.27;5.97;;;;;;;11.04;45.85;100908.22;5071644;28;20060;-68
2022/04/12 02:09:11;;;;;;;9.93;6.30;;;;;;;11.01;46.12;100903.94;5072479;28;20039;-69
2022/04/12 02:11:37;;;;;;;8.93;5.65;;;;;;;11.02;46.22;100910.97;5077675;28;20085;-69
2022/04/12 02:14:03;;;;;;;7.93;5.38;;;;;;;10.96;46.30;100911.34;5073478;28;20028;-69
2022/04/12 02:16:28;;;;;;;10.25;5.63;;;;;;;10.96;46.33;100915.84;5069249;28;20105;-69
2022/04/12 02:18:56;;;;;;;11.07;5.75;;;;;;;10.93;46.64;100906.25;5083567;28;20390;-69
2022/04/12 02:21:22;;;;;;;7.00;5.30;;;;;;;10.91;46.93;100900.16;5079178;28;20044;-69
2022/04/12 02:23:48;;;;;;;7.25;5.10;;;;;;;10.89;46.59;100902.06;5105226;28;20553;-69
2022/04/12 02:26:14;;;;;;;6.95;5.47;;;;;;;10.89;47.30;100904.72;5055679;28;20040;-69
2022/04/12 02:28:40;;;;;;;9.30;5.80;;;;;;;10.81;46.93;100907.03;5073764;28;20086;-69
2022/04/12 02:31:06;;;;;;;7.50;5.65;;;;;;;10.85;46.88;100903.19;5089036;28;20068;-69
2022/04/12 02:33:31;;;;;;;8.98;5.45;;;;;;;10.84;46.79;100902.34;5076602;28;20043;-68
2022/04/12 02:35:57;;;;;;;9.85;5.75;;;;;;;10.72;47.68;100894.31;5060375;28;20033;-68
2022/04/12 02:38:25;;;;;;;11.38;6.00;;;;;;;10.80;47.11;100898.19;5094450;28;20443;-69
2022/04/12 02:40:51;;;;;;;9.77;5.85;;;;;;;10.74;47.47;100893.25;5077564;28;20430;-69
2022/04/12 02:43:16;;;;;;;8.68;5.72;;;;;;;10.67;47.96;100899.91;5072556;28;20032;-69
2022/04/12 02:45:42;;;;;;;7.30;5.25;;;;;;;10.64;47.87;100892.97;5072176;28;20032;-69
2022/04/12 02:48:09;;;;;;;8.13;5.90;;;;;;;10.60;47.80;100891.44;5081737;28;20387;-69
2022/04/12 02:50:35;;;;;;;8.63;5.65;;;;;;;10.60;48.22;100878.16;5089351;28;20040;-69
2022/04/12 02:53:01;;;;;;;8.85;5.90;;;;;;;10.61;48.32;100882.50;5075502;28;20043;-69
2022/04/12 02:55:26;;;;;;;10.20;5.68;;;;;;;10.59;48.49;100878.22;5070984;28;20036;-69
2022/04/12 02:57:52;;;;;;;6.45;5.53;;;;;;;10.55;48.20;100885.56;5071625;28;20043;-69
2022/04/12 03:00:19;;;;;;;8.45;6.00;;;;;;;10.48;48.79;100878.06;5053318;28;20029;-69
2022/04/12 03:02:44;;;;;;;7.63;5.93;;;;;;;10.45;49.07;100884.44;5082708;28;20042;-69
2022/04/12 03:05:10;;;;;;;10.27;5.80;;;;;;;10.37;49.08;100879.59;5070561;28;20052;-69
2022/04/12 03:07:36;;;;;;;7.70;5.43;;;;;;;10.35;49.42;100877.97;5075309;28;20032;-69
2022/04/12 03:10:04;;;;;;;8.82;5.95;;;;;;;10.32;49.41;100872.84;5076763;28;20035;-69
2022/04/12 03:12:32;;;;;;;10.80;5.95;;;;;;;10.34;49.11;100865.63;5075090;28;20032;-69
2022/04/12 03:14:57;;;;;;;8.75;5.70;;;;;;;10.29;49.45;100868.56;5076885;28;20103;-69
2022/04/12 03:17:23;;;;;;;9.68;5.82;;;;;;;10.22;49.75;100864.53;5073310;28;20124;-69
2022/04/12 03:19:49;;;;;;;10.63;5.95;;;;;;;10.18;49.63;100863.88;5082524;28;20054;-69
2022/04/12 03:22:15;;;;;;;10.50;6.43;;;;;;;10.21;49.76;100860.19;5071757;28;20165;-69
2022/04/12 03:24:45;;;;;;;11.48;5.95;;;;;;;10.11;50.33;100843.09;5080698;28;20083;-69
2022/04/12 03:27:10;;;;;;;;;;;;;;;10.22;48.93;100854.75;5076327;28;20039;-69
2022/04/12 03:29:36;;;;;;;6.50;5.80;;;;;;;10.08;50.22;100859.22;5096312;28;19916;-69
2022/04/12 03:32:01;;;;;;;7.35;6.35;;;;;;;10.09;50.03;100844.97;5074955;28;20459;-70
2022/04/12 03:34:28;;;;;;;7.22;5.97;;;;;;;10.09;50.68;100844.97;5070329;28;20032;-69
2022/04/12 03:36:53;;;;;;;9.68;5.70;;;;;;;10.04;50.40;100849.72;5071826;28;20032;-69
2022/04/12 03:39:19;;;;;;;9.40;6.43;;;;;;;9.96;50.42;100844.88;5071691;28;20040;-69
2022/04/12 03:41:46;;;;;;;8.02;5.93;;;;;;;10.01;50.32;100856.09;5057949;28;20030;-69
2022/04/12 03:44:12;;;;;;;10.77;6.72;;;;;;;9.95;51.30;100851.16;5072997;28;20143;-68
2022/04/12 03:46:41;;;;;;;9.57;6.18;;;;;;;9.94;50.88;100855.59;5075173;28;20028;-69
2022/04/12 03:49:10;;;;;;;9.23;6.43;;;;;;;9.94;51.03;100850.28;5071431;28;20024;-69
2022/04/12 03:51:36;;;;;;;11.93;5.82;;;;;;;9.89;50.80;100833.78;5089816;28;20033;-69
2022/04/12 03:54:03;;;;;;;11.20;6.05;;;;;;;9.91;50.87;100826.56;5071663;28;20070;-69
2022/04/12 03:56:29;;;;;;;8.32;6.55;;;;;;;9.89;51.15;100830.25;5072303;28;20025;-69
2022/04/12 03:58:54;;;;;;;7.80;6.50;;;;;;;9.86;51.16;100825.13;5089009;28;20096;-69
2022/04/12 04:01:20;;;;;;;8.68;6.65;;;;;;;9.87;51.17;100830.34;5071467;28;20029;-69
2022/04/12 04:03:45;;;;;;;9.13;7.07;;;;;;;9.84;51.49;100842.97;5072917;28;20036;-69
2022/04/12 04:06:13;;;;;;;9.35;6.80;;;;;;;9.85;51.45;100837.53;5074974;28;20059;-69
2022/04/12 04:08:39;;;;;;;10.07;6.53;;;;;;;9.84;51.61;100837.66;5081115;28;20028;-69
2022/04/12 04:11:05;;;;;;;9.40;6.60;;;;;;;9.89;51.21;100830.25;5078067;28;20110;-69
2022/04/12 04:13:36;;;;;;;10.70;6.88;;;;;;;9.87;51.52;100837.47;5091495;28;20123;-69
2022/04/12 04:16:08;;;;;;;7.85;5.80;;;;;;;9.85;51.40;100834.88;5077180;28;20024;-69
2022/04/12 04:18:34;;;;;;;10.18;6.65;;;;;;;9.82;51.76;100832.41;5086545;28;20028;-69
2022/04/12 04:21:00;;;;;;;9.75;6.60;;;;;;;9.83;51.82;100842.13;5073120;28;20032;-69
2022/04/12 04:23:26;;;;;;;10.55;7.05;;;;;;;9.85;51.61;100824.25;5070489;28;20025;-69
2022/04/12 04:25:51;;;;;;;14.70;6.63;;;;;;;9.84;51.64;100827.88;5056922;28;20090;-69
2022/04/12 04:28:21;;;;;;;10.77;7.00;;;;;;;9.81;52.00;100832.53;5078773;28;20029;-69
2022/04/12 04:30:50;;;;;;;11.02;6.32;;;;;;;9.72;52.35;100834.78;5071841;28;20487;-69
2022/04/12 04:33:22;;;;;;;7.60;6.80;;;;;;;9.77;52.06;100830.06;5075726;28;20025;-69
2022/04/12 04:35:48;;;;;;;11.27;7.03;;;;;;;9.73;51.99;100841.78;5071578;28;20030;-69
2022/04/12 04:38:18;;;;;;;11.77;6.40;;;;;;;9.69;52.19;100824.34;5073740;28;20474;-69
2022/04/12 04:40:44;;;;;;;12.57;6.38;;;;;;;9.70;52.01;100827.84;5074778;28;20467;-69
2022/04/12 04:43:09;;;;;;;11.38;6.53;;;;;;;9.75;52.33;100847.88;5071865;28;20036;-69
2022/04/12 04:45:35;;;;;;;10.35;6.88;;;;;;;9.66;52.71;100843.09;5081548;28;20462;-69
2022/04/12 04:48:03;;;;;;;8.80;6.40;;;;;;;9.63;52.79;100861.88;5077252;28;20486;-69
2022/04/12 04:50:31;;;;;;;10.77;6.82;;;;;;;9.70;52.33;100873.84;5070503;28;20028;-69
2022/04/12 04:52:57;;;;;;;12.25;7.25;;;;;;;9.65;52.84;100881.25;5083472;28;20024;-69
2022/04/12 04:55:23;;;;;;;11.07;7.53;;;;;;;9.65;52.53;100873.28;5071023;28;20036;-70
2022/04/12 04:57:53;;;;;;;14.05;7.72;;;;;;;9.65;52.84;100889.22;5071228;28;20043;-69
2022/04/12 05:00:19;;;;;;;11.77;7.18;;;;;;;9.67;53.09;100875.81;5078334;28;20494;-69
2022/04/12 05:02:46;;;;;;;11.32;7.22;;;;;;;9.59;53.84;100881.59;5071312;28;20033;-69
2022/04/12 05:05:15;;;;;;;16.30;7.43;;;;;;;9.65;52.92;100881.25;5078908;28;20059;-69
2022/04/12 05:07:44;;;;;;;14.10;7.90;;;;;;;9.67;53.12;100863.41;5071032;28;20028;-69
2022/04/12 05:10:13;;;;;;;15.52;7.40;;;;;;;9.75;53.13;100855.00;5071238;28;20021;-69
2022/04/12 05:12:41;;;;;;;15.82;7.32;;;;;;;9.79;52.78;100851.19;5077663;28;20021;-69
2022/04/12 05:15:11;;;;;;;10.35;6.95;;;;;;;9.75;52.94;100855.84;5070354;28;20056;-69
2022/04/12 05:17:40;;;;;;;11.57;7.50;;;;;;;9.85;52.99;100863.25;5081839;28;20475;-68
2022/04/12 05:20:09;;;;;;;11.45;7.57;;;;;;;9.77;53.22;100863.72;5087359;28;20027;-69
2022/04/12 05:22:37;;;;;;;8.38;7.28;;;;;;;9.82;52.93;100866.94;5056512;28;20121;-69
2022/04/12 05:25:06;;;;;;;10.18;7.30;;;;;;;9.79;52.99;100859.16;5074073;28;20772;-69
2022/04/12 05:27:32;;;;;;;12.43;7.10;;;;;;;9.84;53.18;100864.22;5071129;28;20025;-69
2022/04/12 05:29:59;;;;;;;12.05;7.45;;;;;;;9.81;52.93;100854.63;5074908;28;20035;-69
2022/04/12 05:32:26;;;;;;;9.90;7.43;;;;;;;9.85;52.83;100845.50;5082701;28;20098;-69
2022/04/12 05:34:52;;;;;;;13.10;7.88;;;;;;;9.87;52.80;100845.44;5070541;28;20109;-69
2022/04/12 05:37:18;;;;;;;10.82;8.07;;;;;;;9.93;52.93;100851.22;5057023;28;20513;-69
2022/04/12 05:39:43;;;;;;;10.20;7.55;;;;;;;9.81;53.05;100845.81;5070743;28;20032;-69
2022/04/12 05:42:10;;;;;;;9.40;7.18;;;;;;;9.88;53.11;100863.06;5070290;28;20051;-68
2022/04/12 05:44:36;;;;;;;8.75;7.53;;;;;;;9.81;53.51;100851.13;5087325;28;20028;-69
2022/04/12 05:47:03;;;;;;;9.90;7.90;;;;;;;9.81;53.53;100848.47;5052399;28;20440;-69
2022/04/12 05:49:29;;;;;;;11.80;8.15;;;;;;;9.82;53.49;100855.47;5068272;28;20029;-69
2022/04/12 05:51:55;;;;;;;14.13;7.80;;;;;;;9.78;53.28;100858.31;5070806;28;20020;-69
2022/04/12 05:54:21;;;;;;;10.68;8.35;;;;;;;9.80;53.37;100873.31;5069856;28;20032;-69
2022/04/12 05:56:49;;;;;;;13.90;8.30;;;;;;;9.78;53.72;100871.59;5067903;28;20033;-69
2022/04/12 05:59:15;;;;;;;9.98;8.15;;;;;;;9.79;53.91;100859.16;5077409;28;20032;-69
2022/04/12 06:01:40;;;;;;;12.73;8.35;;;;;;;9.82;53.58;100860.78;5073146;28;20031;-68
2022/04/12 06:04:09;;;;;;;12.38;7.70;;;;;;;9.84;53.63;100865.06;5069384;28;20035;-68
2022/04/12 06:06:34;;;;;;;14.00;8.93;;;;;;;9.83;53.88;100863.38;5068202;28;20055;-68
2022/04/12 06:09:02;;;;;;;10.70;8.07;;;;;;;9.87;53.55;100864.03;5071598;28;20020;-68
2022/04/12 06:11:28;;;;;;;12.77;8.25;;;;;;;9.94;53.49;100860.91;5081821;28;20042;-68
2022/04/12 06:13:54;;;;;;;14.52;8.38;;;;;;;9.96;53.55;100851.03;5075290;28;20028;-69
2022/04/12 06:16:22;;;;;;;12.27;8.07;;;;;;;10.12;53.34;100866.91;5070530;28;20036;-69
2022/04/12 06:18:48;;;;;;;10.60;8.07;;;;;;;10.24;53.09;100862.66;5070143;28;20050;-70
2022/04/12 06:21:13;;;;;;;11.50;7.97;;;;;;;10.33;52.55;100864.78;5068645;28;20024;-68
2022/04/12 06:23:40;;;;;;;14.95;8.35;;;;;;;10.41;52.80;100866.94;5068424;28;20035;-69
2022/04/12 06:26:06;;;;;;;15.13;8.05;;;;;;;10.49;52.59;100864.66;5082709;28;20028;-68
2022/04/12 06:28:32;;;;;;;11.77;8.23;;;;;;;10.59;52.27;100863.16;5070122;28;20036;-68
2022/04/12 06:30:59;;;;;;;11.20;8.35;;;;;;;10.62;52.35;100865.63;5070405;28;20063;-68
2022/04/12 06:33:28;;;;;;;11.63;8.60;;;;;;;10.69;51.70;100866.94;5075091;28;20051;-68
2022/04/12 06:35:53;;;;;;;10.52;7.57;;;;;;;10.76;51.69;100871.84;5075215;28;20562;-68
2022/04/12 06:38:19;;;;;;;10.98;7.88;;;;;;;10.80;51.58;100874.25;5090807;28;20111;-68
2022/04/12 06:40:46;;;;;;;12.30;7.75;;;;;;;10.81;51.28;100873.28;5091191;28;20027;-68
2022/04/12 06:43:12;;;;;;;12.35;8.13;;;;;;;10.81;51.48;100875.94;5083573;28;20036;-69
2022/04/12 06:45:41;;;;;;;10.13;8.48;;;;;;;10.91;50.85;100874.41;5070605;28;20020;-68
2022/04/12 06:48:07;;;;;;;10.33;8.10;;;;;;;11.01;51.05;100857.84;5073904;28;20062;-68
2022/04/12 06:50:33;;;;;;;11.90;7.43;;;;;;;11.13;50.67;100859.72;5069226;28;20132;-68
2022/04/12 06:52:59;;;;;;;13.65;8.25;;;;;;;11.24;50.17;100846.56;5070998;28;20483;-68
2022/04/12 06:55:25;;;;;;;17.13;8.75;;;;;;;11.39;50.35;100852.69;5091436;28;20038;-67
2022/04/12 06:57:51;;;;;;;10.98;7.40;;;;;;;11.50;50.78;100851.94;5070264;28;20119;-68
2022/04/12 07:00:18;;;;;;;11.15;8.40;;;;;;;11.65;49.37;100860.72;5059918;28;20119;-68
2022/04/12 07:02:44;;;;;;;12.20;7.50;;;;;;;11.82;49.20;100860.44;5052267;28;20023;-68
2022/04/12 07:05:10;;;;;;;10.70;8.02;;;;;;;11.94;48.61;100861.44;5070142;28;20040;-68
2022/04/12 07:07:40;;;;;;;10.50;7.93;;;;;;;12.06;48.55;100855.28;5051767;28;20131;-68
2022/04/12 07:10:09;;;;;;;;;;;;;;;12.22;48.92;100852.38;5076677;28;20024;-68
2022/04/12 07:12:35;;;;;;;;;;;;;;;12.38;48.25;100842.38;5079444;28;19912;-68
2022/04/12 07:15:01;;;;;;;12.13;7.95;;;;;;;12.46;48.07;100845.31;5094208;28;19918;-68
2022/04/12 07:17:26;;;;;;;10.73;7.40;;;;;;;12.59;47.61;100852.44;5086117;28;20028;-68
2022/04/12 07:19:53;;;;;;;8.02;7.22;;;;;;;12.82;47.62;100859.66;5072288;28;20116;-68
2022/04/12 07:22:18;;;;;;;12.65;7.10;;;;;;;12.98;47.09;100862.06;5072989;28;20078;-68
2022/04/12 07:24:44;;;;;;;12.10;7.07;;;;;;;13.07;46.66;100856.06;5072380;28;20037;-68
2022/04/12 07:27:09;;;;;;;10.50;7.20;;;;;;;13.09;46.69;100842.59;5073558;28;20063;-68
2022/04/12 07:29:35;;;;;;;14.40;7.97;;;;;;;13.24;46.38;100853.97;5073655;28;20031;-68
2022/04/12 07:32:00;;;;;;;9.10;6.80;;;;;;;13.27;45.66;100854.63;5091510;28;20016;-68
2022/04/12 07:34:26;;;;;;;13.38;6.43;;;;;;;13.34;45.85;100842.50;5085189;28;20028;-68
2022/04/12 07:36:54;;;;;;;8.60;6.75;;;;;;;13.54;45.89;100861.53;5078455;28;20028;-68
2022/04/12 07:39:20;;;;;;;9.63;7.03;;;;;;;13.57;45.77;100851.47;5089395;28;20492;-68
2022/04/12 07:41:47;;;;;;;7.97;6.85;;;;;;;13.73;45.90;100853.81;5079025;28;20016;-69
2022/04/12 07:44:13;;;;;;;10.85;6.63;;;;;;;13.92;45.83;100850.59;5093668;28;20024;-69
2022/04/12 07:46:39;;;;;;;10.00;6.20;;;;;;;14.09;45.14;100852.81;5084106;28;20030;-69
2022/04/12 07:49:05;;;;;;;12.60;6.65;;;;;;;14.16;44.94;100860.38;5080676;28;20510;-68
2022/04/12 07:51:30;;;;;;;8.70;6.30;;;;;;;14.25;44.74;100855.13;5089158;28;20039;-69
2022/04/12 07:53:56;;;;;;;11.13;6.32;;;;;;;14.24;44.33;100847.25;5073282;28;20111;-69
2022/04/12 07:56:23;;;;;;;9.18;6.05;;;;;;;14.36;44.72;100848.09;5082766;28;20067;-68
2022/04/12 07:58:52;;;;;;;11.60;5.88;;;;;;;14.56;44.84;100854.56;5073039;28;20502;-69
2022/04/12 08:01:17;;;;;;;9.93;6.38;;;;;;;14.68;44.13;100851.78;5073276;28;20162;-69
2022/04/12 08:03:42;;;;;;;8.48;6.15;;;;;;;14.80;44.14;100846.41;5071725;28;20477;-69
2022/04/12 08:06:08;;;;;;;13.63;6.28;;;;;;;14.84;43.44;100855.88;5072285;28;20576;-69
2022/04/12 08:08:34;;;;;;;6.55;5.50;;;;;;;14.96;43.62;100857.56;5082888;28;20400;-69
2022/04/12 08:10:59;;;;;;;9.32;5.75;;;;;;;15.08;43.29;100861.91;5106603;28;20024;-69
2022/04/12 08:13:27;;;;;;;9.13;5.72;;;;;;;15.12;43.65;100846.47;5079508;28;20074;-69
2022/04/12 08:15:57;;;;;;;8.77;5.80;;;;;;;15.15;43.62;100865.81;5071174;28;20089;-69
2022/04/12 08:18:25;;;;;;;7.75;5.38;;;;;;;15.12;43.17;100866.06;5075096;28;20031;-68
2022/04/12 08:20:51;;;;;;;6.38;5.53;;;;;;;15.16;43.77;100866.66;5078071;28;20036;-69
2022/04/12 08:23:17;;;;;;;7.45;5.47;;;;;;;15.29;43.26;100866.50;5071456;28;20082;-69
2022/04/12 08:25:42;;;;;;;10.05;5.28;;;;;;;15.33;43.23;100870.63;5088955;28;20024;-68
2022/04/12 08:28:09;;;;;;;6.10;5.15;;;;;;;15.44;43.03;100862.53;5093025;28;20024;-69
2022/04/12 08:30:35;;;;;;;7.47;4.80;;;;;;;15.58;42.81;100861.38;5098862;28;20036;-69
2022/04/12 08:33:01;;;;;;;5.78;4.45;;;;;;;15.73;42.86;100864.63;5082261;28;20050;-70
2022/04/12 08:35:29;;;;;;;11.02;5.40;;;;;;;15.92;42.01;100858.56;5088366;28;20032;-70
2022/04/12 08:37:55;;;;;;;5.03;4.30;;;;;;;16.06;42.20;100855.53;5073887;28;20466;-70
2022/04/12 08:40:21;;;;;;;5.47;4.05;;;;;;;16.11;41.47;100848.78;5076819;28;20025;-69
2022/04/12 08:42:49;;;;;;;9.38;4.45;;;;;;;16.20;41.26;100847.16;5091435;28;20187;-69
2022/04/12 08:45:15;;;;;;;6.00;4.40;;;;;;;16.22;41.22;100839.81;5082618;28;20032;-69
2022/04/12 08:47:41;;;;;;;8.40;4.07;;;;;;;16.32;41.42;100831.81;5090792;28;20205;-69
2022/04/12 08:50:08;;;;;;;8.18;4.10;;;;;;;16.40;41.32;100826.63;5089692;28;20024;-69
2022/04/12 08:52:38;;;;;;;9.30;3.97;;;;;;;16.38;40.72;100833.94;5087491;28;20383;-69
2022/04/12 08:55:08;;;;;;;4.75;3.63;;;;;;;16.50;42.00;100826.66;5072983;28;20028;-68
2022/04/12 08:57:34;;;;;;;5.60;3.67;;;;;;;16.58;41.16;100819.63;5073162;28;20044;-69
2022/04/12 09:00:00;;;;;;;11.50;4.13;;;;;;;16.66;41.01;100823.47;5090583;28;20032;-69
2022/04/12 09:02:28;;;;;;;5.85;3.97;;;;;;;16.87;40.44;100826.94;5087317;28;20033;-69
2022/04/12 09:04:53;;;;;;;8.00;3.97;;;;;;;17.01;40.79;100826.56;5077907;28;20035;-69
2022/04/12 09:07:25;;;;;;;9.35;4.28;;;;;;;17.07;40.44;100832.38;5053325;28;20624;-69
2022/04/12 09:09:52;;;;;;;6.78;4.32;;;;;;;17.10;39.96;100832.94;5072008;28;20051;-69
2022/04/12 09:12:18;;;;;;;7.57;4.10;;;;;;;17.19;40.38;100823.19;5072063;28;20474;-70
2022/04/12 09:14:54;;;;;;;8.80;4.80;;;;;;;17.30;40.11;100814.16;5087021;28;20161;-70
2022/04/12 09:17:31;;;;;;;6.28;3.83;;;;;;;17.42;39.78;100813.00;5083973;28;20120;-69
2022/04/12 09:19:56;;;;;;;7.35;4.45;;;;;;;17.63;39.51;100797.56;5087212;28;20084;-70
2022/04/12 09:22:24;;;;;;;10.80;4.25;;;;;;;17.69;39.04;100794.28;5069428;28;20036;-70
2022/04/12 09:25:00;;;;;;;5.57;3.85;;;;;;;17.94;39.47;100797.38;5079120;28;20028;-70
2022/04/12 09:27:28;;;;;;;7.93;3.83;;;;;;;18.11;39.29;100785.00;5090506;28;20054;-69
2022/04/12 09:29:56;;;;;;;6.80;3.83;;;;;;;18.29;38.50;100801.22;5091678;28;20032;-70
2022/04/12 09:32:26;;;;;;;10.77;3.53;;;;;;;18.46;38.66;100786.13;5084516;28;20024;-70
2022/04/12 09:34:55;;;;;;;7.65;3.70;;;;;;;18.63;37.64;100785.31;5070003;28;20051;-70
2022/04/12 09:37:28;;;;;;;9.75;3.70;;;;;;;18.60;37.41;100793.72;5070804;28;20037;-69
2022/04/12 09:40:03;;;;;;;7.80;3.45;;;;;;;18.68;37.93;100776.78;5071090;28;20514;-70
2022/04/12 09:42:58;;;;;;;6.70;4.00;;;;;;;18.89;37.92;100792.72;5071276;28;20111;-70
2022/04/12 09:45:30;;;;;;;7.47;3.60;;;;;;;18.77;37.28;100795.63;5070624;28;20048;-69
2022/04/12 09:48:02;;;;;;;5.40;3.67;;;;;;;18.71;37.17;100795.38;5070768;28;20103;-70
2022/04/12 09:50:29;;;;;;;7.45;3.55;;;;;;;18.72;37.46;100808.66;5078866;28;20031;-70
2022/04/12 09:53:02;;;;;;;6.20;3.70;;;;;;;18.84;37.18;100794.00;5070809;28;20487;-70
2022/04/12 09:55:49;;;;;;;6.50;3.28;;;;;;;19.08;37.64;100803.34;5071156;28;20111;-70
2022/04/12 09:58:21;;;;;;;6.47;3.55;;;;;;;19.05;36.92;100803.66;5070908;28;20021;-69
2022/04/12 10:00:49;;;;;;;6.78;3.47;;;;;;;19.17;37.16;100801.59;5071290;28;20020;-69
2022/04/12 10:03:19;;;;;;;6.78;3.90;;;;;;;19.17;36.79;100799.72;5070731;28;20036;-70
2022/04/12 10:05:46;;;;;;;7.30;3.70;;;;;;;19.16;36.76;100787.25;5078533;28;20496;-70
2022/04/12 10:08:17;;;;;;;8.65;3.72;;;;;;;19.10;37.51;100773.56;5052742;28;20040;-69
2022/04/12 10:10:45;;;;;;;8.60;3.60;;;;;;;19.38;36.83;100777.00;5072472;28;20036;-69
2022/04/12 10:13:14;;;;;;;7.15;3.67;;;;;;;19.61;36.84;100766.56;5069841;28;20209;-70
2022/04/12 10:15:42;;;;;;;11.20;3.65;;;;;;;19.95;36.21;100756.69;5068892;28;20040;-69
2022/04/12 10:18:09;;;;;;;7.70;3.60;;;;;;;20.21;35.92;100755.84;5076038;28;20054;-70
2022/04/12 10:20:35;;;;;;;7.60;3.58;;;;;;;20.35;35.29;100755.22;5071074;28;20454;-69
2022/04/12 10:23:01;;;;;;;10.10;2.95;;;;;;;20.40;34.96;100760.13;5070371;28;20021;-70
2022/04/12 10:25:28;;;;;;;5.60;3.72;;;;;;;20.30;35.23;100759.41;5069105;28;20498;-70
2022/04/12 10:27:58;;;;;;;4.65;3.70;;;;;;;20.43;35.32;100747.13;5073480;28;20028;-70
2022/04/12 10:30:28;;;;;;;7.28;3.70;;;;;;;20.48;35.87;100746.66;5091258;28;20020;-70
2022/04/12 10:33:08;;;;;;;5.80;3.47;;;;;;;20.74;35.19;100749.28;5071183;28;20028;-69
2022/04/12 10:35:46;;;;;;;7.10;3.53;;;;;;;20.85;34.94;100742.72;5069750;28;20056;-69
2022/04/12 10:38:13;;;;;;;4.32;3.03;;;;;;;20.88;34.87;100750.47;5070081;28;20086;-70
2022/04/12 10:40:50;;;;;;;5.43;3.25;;;;;;;21.00;34.81;100753.72;5070803;28;20034;-70
2022/04/12 10:43:30;;;;;;;7.10;3.20;;;;;;;21.12;33.72;100749.69;5070502;28;20035;-69
2022/04/12 10:45:57;;;;;;;7.78;3.22;;;;;;;21.04;33.81;100747.81;5069446;28;20077;-70
2022/04/12 10:48:31;;;;;;;5.78;2.83;;;;;;;21.03;33.93;100742.56;5089193;28;20440;-70
2022/04/12 10:51:01;;;;;;;6.43;3.67;;;;;;;21.03;33.47;100754.25;5094508;28;20034;-69
2022/04/12 10:53:38;;;;;;;;;;;;;;;21.34;34.58;100750.88;5085242;28;20028;-70
2022/04/12 10:56:04;;;;;;;8.50;3.25;;;;;;;21.33;34.42;100741.06;5087992;28;19927;-69
2022/04/12 10:58:31;;;;;;;7.63;3.50;;;;;;;21.31;33.26;100740.38;5072663;28;20387;-70
2022/04/12 11:00:57;;;;;;;10.13;3.40;;;;;;;21.28;33.44;100732.59;5071159;28;20028;-70
2022/04/12 11:03:46;;;;;;;5.85;3.05;;;;;;;21.25;34.13;100725.66;5073885;28;20081;-70
2022/04/12 11:06:30;;;;;;;4.93;3.47;;;;;;;21.34;33.37;100737.34;5073199;28;20059;-70
2022/04/12 11:09:11;;;;;;;7.20;3.55;;;;;;;21.69;33.50;100746.97;5074098;28;20070;-70
2022/04/12 11:11:41;;;;;;;9.98;3.70;;;;;;;21.81;33.40;100735.78;5088721;28;20032;-69
2022/04/12 11:14:32;;;;;;;8.77;3.35;;;;;;;22.09;33.50;100744.34;5088823;28;20021;-70
2022/04/12 11:17:00;;;;;;;6.88;3.30;;;;;;;21.99;32.95;100731.84;5077443;28;20027;-70
2022/04/12 11:19:26;;;;;;;6.40;3.63;;;;;;;22.05;32.75;100738.44;5074147;28;20029;-70
2022/04/12 11:21:55;;;;;;;7.03;3.50;;;;;;;21.74;32.85;100732.94;5072009;28;20040;-69
2022/04/12 11:24:22;;;;;;;6.80;3.03;;;;;;;21.54;33.36;100732.47;5086949;28;20034;-69
2022/04/12 11:27:02;;;;;;;4.35;3.40;;;;;;;21.52;33.22;100738.03;5082768;28;20025;-70
2022/04/12 11:29:28;;;;;;;5.53;3.20;;;;;;;21.65;34.24;100731.25;5086888;28;20027;-70